Liliu Sappinen

Olheiro - Flora
6 Dez 2028
Quarta-feira
Processo

Personalidade

Adaptabilidade (5) Ambição (2) Controvérsia (1) Lealdade (13) Pressão (15) Profissionalismo (8) Espírito Esportivo (9) Temperamento (15)

Perfil

Estilo de Treinamento Democrático
Licença Continental C
Determinação 7
Gestão de Pessoas 6
Motivação 8
Disciplina 6
Satisfação no Trabalho
100%
Fadiga
0%
Função Olheiro
Salário 31.5K p/s
Contrato 14.03.2030

Desempenho

Comportamento Bom
Eficácia do Treinamento
39%
Desenvolvimento do Jogador
25%
Prevenção de Lesões
50%
Implementação Tática
30%

Eventos Recentes

Avaliou um jogador agora
Avaliou um jogador agora
Participou de uma reunião de recrutamento agora
Recomendou um alvo de transferência agora
Recomendou um alvo de transferência agora
Avaliou um jogador 7d atrás
Avaliou um jogador 7d atrás
Avaliou um jogador 7d atrás

Monitorando agora

210
Jogador Clube Status Habilidade Confiança Observado Última observação Último voto
Luis Palacios Once Caldas Ativo 130 / 122 40% 3 05.12.2028 -
Alan Olinick Racing Ativo 110 / 105 40% 1 05.12.2028 -
Gabriel Díaz Patronato Ativo 122 / 103 40% 1 05.12.2028 -
Alcides Benítez Belgrano Ativo 115 / 133 40% 2 04.12.2028 -
Alessandro Nunziante Mantova Ativo 129 / 123 40% 1 04.12.2028 -
Ramiro Buratti River Plate Ativo 98 / 99 40% 1 04.12.2028 -
Walter Juárez Güemes Ativo 118 / 100 40% 1 04.12.2028 -
Santiago Kubiszyn Morón Ativo 123 / 127 40% 1 03.12.2028 -
Tomás Castro Ponce Atlanta Ativo 108 / 114 40% 1 03.12.2028 -
Miguel Ceccotti Güemes Ativo 101 / 106 40% 2 02.12.2028 -
Diego Gaitán Maipú Ativo 111 / 113 40% 2 02.12.2028 -
Enzo González Defensores Ativo 112 / 100 40% 4 02.12.2028 -
Iván Cabrera Arsenal Ativo 110 / 105 40% 1 02.12.2028 -
Facundo López Morón Ativo 114 / 110 40% 1 02.12.2028 -
Juan Pintado Gimnasia La Plata Ativo 122 / 109 40% 1 02.12.2028 -
Thiago Sabella Banfield Ativo 109 / 110 40% 1 01.12.2028 -
Lisandro Musso Central Córdoba SdE Ativo 105 / 101 40% 1 01.12.2028 -
Roman Volochay Akron Ativo 78 / 85 40% 1 01.12.2028 -
Siro Rosané Estudiantes Ativo 125 / 128 40% 2 30.11.2028 -
Fernando Duré Estudiantes Ativo 104 / 118 40% 1 30.11.2028 -
Marcos Enrique Tristán Suárez Ativo 111 / 116 40% 1 30.11.2028 -
Nikolay Borushnov Dinamo Minsk Ativo 76 / 85 40% 1 30.11.2028 -
Mikhail Klyakin BATE Ativo 82 / 93 40% 1 30.11.2028 -
Martín Díaz Lanús Ativo 98 / 110 40% 1 30.11.2028 -
Yuber Quiñónes Patriotas Ativo 114 / 123 40% 3 29.11.2028 -
Cesar Rubio Envigado Ativo 123 / 130 40% 2 29.11.2028 -
Yeferson Rodallega Envigado Ativo 116 / 123 40% 3 29.11.2028 -
Facundo Melillán Güemes Ativo 120 / 96 40% 2 29.11.2028 -
Luciano Zannier Talleres Ativo 111 / 95 40% 1 29.11.2028 -
Camilo Alessandria Godoy Cruz Ativo 115 / 112 40% 1 29.11.2028 -
Andrey Tsitsilin Baltika Ativo 89 / 88 40% 1 29.11.2028 -
Makar Suschiy Slutsk Ativo 76 / 80 40% 1 29.11.2028 -
Artem Albastov Kolomna Ativo 77 / 72 40% 1 29.11.2028 -
Gastón Moreyra Almirante Brown Ativo 117 / 111 40% 2 28.11.2028 -
Lautaro Disanto Defensores Unidos Ativo 113 / 106 40% 2 28.11.2028 -
Pablo Cardona Cortulua Ativo 111 / 106 40% 3 26.11.2028 -
Juan Antonini Estudiantes Ativo 116 / 113 40% 1 26.11.2028 -
Thiago Parga Huracán Ativo 105 / 98 40% 1 26.11.2028 -
Vladislav Drozd Isloch Ativo 82 / 77 40% 1 26.11.2028 -
Dylan Moody Cheltenham Town Ativo 133 / 138 40% 1 26.11.2028 -
Agustín Benítez Defensores Ativo 112 / 124 40% 1 25.11.2028 -
Bruno Leyes Godoy Cruz Ativo 136 / 114 40% 2 24.11.2028 -
Luka Gagnidze Dinamo Moscow Ativo 123 / 113 40% 1 24.11.2028 -
Alexis Maldonado Belgrano Ativo 127 / 109 40% 1 23.11.2028 -
Ruggero Ferrari Sassuolo Ativo 85 / 83 40% 1 23.11.2028 -
Robert Cook Accrington Stanley Ativo 114 / 109 40% 1 23.11.2028 -
Agustín Cañete Banfield Ativo 111 / 128 40% 1 23.11.2028 -
Tobías Leiva Estudiantes Ativo 114 / 129 40% 2 22.11.2028 -
Lucas Más Maipú Ativo 108 / 112 40% 1 22.11.2028 -
Agustín Sosa Madryn Ativo 119 / 116 40% 1 22.11.2028 -
Matías Vilalta Giana Erminio Ativo 108 / 117 40% 1 22.11.2028 -
Ulíses López Barracas Central Ativo 103 / 90 40% 1 22.11.2028 -
Ivan Chesnakov Chernomorets Ativo 69 / 69 40% 1 22.11.2028 -
Nahuel Curcio Colón Ativo 124 / 107 40% 4 21.11.2028 -
Matías Viguet Maipú Ativo 120 / 104 40% 2 21.11.2028 -
Martín Campos Ferro Carril Oeste Ativo 118 / 103 40% 1 21.11.2028 -
Mauro Osores San Martín SJ Ativo 115 / 104 40% 1 21.11.2028 -
Enzo Silcan Almagro Ativo 121 / 115 40% 1 21.11.2028 -
Vladislav Postrigan Akron Ativo 81 / 78 40% 1 21.11.2028 -
Ignacio Cardozo Vélez Ativo 94 / 101 40% 1 21.11.2028 -
Jack Austin Chelsea Ativo 98 / 101 40% 1 21.11.2028 -
Facundo Rodríguez Estudiantes Ativo 131 / 112 40% 1 18.11.2028 -
Brian Aguilar Tristán Suárez Ativo 112 / 100 40% 1 18.11.2028 -
Braian Aranda Agropecuario Argentino Ativo 122 / 104 40% 1 18.11.2028 -
Gerardo Díaz San Martín SJ Ativo 108 / 112 40% 1 17.11.2028 -
Yegor Trifonov Amkar Ativo 62 / 66 40% 1 17.11.2028 -
Lucas Wolfert Racing Club Ativo 110 / 115 40% 1 17.11.2028 -
Federico Bisanz Atlanta Ativo 117 / 120 40% 4 13.11.2028 -
Santiago Gutiérrez Alvarado Ativo 114 / 102 40% 1 13.11.2028 -
Iñaki Larthirigoyen San Telmo Ativo 125 / 116 40% 1 12.11.2028 -
Alexandr Lomovitskiy Torpedo-BelAZ Ativo 113 / 104 40% 1 12.11.2028 -
Samuel Anakwe Remo Stars Ativo 93 / 87 40% 2 11.11.2028 -
Santiago Sala Güemes Ativo 116 / 105 40% 2 10.11.2028 -
Yeison Suárez Deportivo Pereira Ativo 122 / 103 40% 1 10.11.2028 -
Adrián Sánchez Belgrano Ativo 130 / 112 40% 3 09.11.2028 -
Franco Ayunta Temperley Ativo 107 / 99 40% 1 09.11.2028 -
Luis Ángel Díaz Independiente Rivadavia Ativo 116 / 125 40% 2 08.11.2028 -
Juan Velázquez Belgrano Ativo 127 / 124 40% 1 08.11.2028 -
Rodrigo González Mitre Ativo 127 / 126 40% 1 08.11.2028 -
Nicolás Retamar Ferro Carril Oeste Ativo 123 / 119 40% 2 07.11.2028 -
Gianluca Pugliese Güemes Ativo 116 / 104 40% 1 07.11.2028 -
Alex Oyowah Rivers United Ativo 105 / 111 40% 2 05.11.2028 -
Agustín Morales Estudiantes Ativo 118 / 112 40% 2 05.11.2028 -
Matías Bergara Nueva Chicago Ativo 121 / 114 40% 2 04.11.2028 -
Patricio Moyano Defensores Ativo 126 / 118 40% 1 04.11.2028 -
Ramón González Almirante Brown Ativo 110 / 113 40% 1 04.11.2028 -
Alejo Dramisino Atlanta Ativo 122 / 129 40% 1 02.11.2028 -
Federico Álvarez Dinamo Tbilisi Ativo 117 / 125 40% 1 01.11.2028 -
Juan Sebastián Herrera Deportivo La Guaira Ativo 113 / 113 40% 1 01.11.2028 -
Radivoj Bosić Vitebsk Ativo 110 / 106 40% 1 30.10.2028 -
John Córdoba Millonarios Ativo 120 / 132 40% 4 27.10.2028 -
Julián Vera Maipú Ativo 106 / 102 40% 1 26.10.2028 -
Facundo Villarreal Los Andes Ativo 102 / 95 40% 1 26.10.2028 -
Yegor Kortsov Dinamo Brest Ativo 117 / 109 40% 4 24.10.2028 -
Mauro Valiente Estudiantes Ativo 119 / 123 40% 1 19.10.2028 -
Kirill Tsepenkov Dnepr Mogilev Ativo 107 / 98 40% 1 19.10.2028 -
Tomás Pozzo Godoy Cruz Ativo 128 / 128 40% 2 17.10.2028 -
Carlos Cantillo Jaguares Ativo 109 / 110 40% 1 17.10.2028 -
Karen Vardanyan Dinamo Minsk Ativo 104 / 100 40% 1 16.10.2028 -
Luis Olivera Defensores Unidos Ativo 113 / 98 40% 1 16.10.2028 -
Matías Ramírez Godoy Cruz Ativo 120 / 107 40% 1 15.10.2028 -
Guljigit Alykulov Dinamo Minsk Ativo 113 / 99 40% 1 15.10.2028 -
Franco Vedoya Central Norte Ativo 119 / 101 40% 1 13.10.2028 -
Tomás Ferreyra Defensores Unidos Ativo 115 / 110 40% 2 12.10.2028 -
Timothy Zechariah Rivers United Ativo 100 / 106 40% 1 12.10.2028 -
Nazareno Kihm Ferro Carril Oeste Ativo 117 / 129 40% 1 12.10.2028 -
Matteo Trombini Arsenal Ativo 105 / 100 40% 1 11.10.2028 -
José Barreto Quilmes Ativo 122 / 125 40% 1 08.10.2028 -
Juan David Rueda Alianza Petrolera Ativo 106 / 123 40% 1 08.10.2028 -
Johan Campaña Patriotas Ativo 115 / 97 40% 1 06.10.2028 -
David Veliz Güemes Ativo 116 / 114 40% 1 02.10.2028 -
Giorgi Arabidze Torpedo Kutaisi Ativo 126 / 103 40% 1 21.08.2028 -
Nicolás Baigorria FCI Tallinn Perdido 83 / 87 79% 1 14.08.2028 -
Jesús Amarilla Nomme Kalju Perdido 96 / 98 79% 1 07.08.2028 -
Tom Davies Barnet Ativo 137 / 147 40% 1 07.08.2028 -
Jay McGrath Doncaster Rovers Ativo 115 / 108 40% 1 07.08.2028 -
Harvey Rodgers Colchester United Negociando 116 / 122 40% 1 07.08.2028 -
Abdourahman Badamosi Paide Ativo 88 / 92 79% 1 19.06.2028 Aprovar
Vladimir Khubulov Dinamo Makhachkala Ativo 108 / 116 40% 1 31.05.2028 -
Gamid Agalarov Orenburg Ativo 113 / 109 40% 1 31.05.2028 -
Joshua Ajala Walsall Ativo 100 / 96 40% 1 31.05.2028 -
Fernando Costanza Krylya Sovetov Ativo 124 / 126 40% 1 31.05.2028 -
Alexandr Ivankov Torpedo Moscow Ativo 115 / 108 40% 1 31.05.2028 -
Vicente Poggi Godoy Cruz Ativo 117 / 112 40% 1 03.01.2028 -
Ignacio Saavedra Sochi Ativo 117 / 123 40% 1 03.01.2028 -
Stanislav Magkeev Fakel Ativo 118 / 103 40% 1 03.01.2028 -
Jacob Dicko Eng Paide Ativo 101 / 104 42% 1 / 1m 03.11.2027 -
Tomás Clavijo Narva Trans Ativo 81 / 82 72% 1 12.07.2027 Aprovar
Chilem Williams Ignatius Tammeka Ativo 74 / 79 30% 1 / 1m 16.06.2027 -
Pavel Marin Tammeka Ativo 96 / 96 30% 1 / 1m 16.06.2027 -
Iker Pozo Rodina Ativo 123 / 114 40% 4 31.05.2027 -
Yegor Noskov SKA Khabarovsk Ativo 91 / 101 40% 1 31.05.2027 -
Denis Fomin SKA Khabarovsk Ativo 92 / 92 40% 2 30.05.2027 -
Daniil Penchikov Arsenal Tula Ativo 105 / 107 40% 2 30.05.2027 -
Edgardo Fariña Nizhniy Novgorod Ativo 117 / 108 40% 1 30.05.2027 -
Garrik Levin Chelyabinsk Ativo 108 / 107 40% 2 29.05.2027 -
Temirkan Sundukov Dinamo Makhachkala Ativo 110 / 120 40% 2 28.05.2027 -
Pavel Maslov Chaika Ativo 105 / 111 40% 4 28.05.2027 -
Mitja Križan Rodina Ativo 103 / 111 40% 2 24.05.2027 -
Mario Ćurić Torpedo Moscow Ativo 102 / 100 40% 3 23.05.2027 -
Ítalo Ural Ativo 107 / 110 40% 3 23.05.2027 -
Konstantin Kovalev Volga Ativo 96 / 91 40% 1 23.05.2027 -
Mamadou Maïga Nizhniy Novgorod Ativo 107 / 113 40% 3 22.05.2027 -
Danila Vedernikov Orenburg Ativo 104 / 100 40% 2 22.05.2027 -
Artem Makarchuk Sochi Ativo 115 / 105 40% 2 18.05.2027 -
Nikita Pechenkin Sokol Ativo 98 / 104 40% 2 18.05.2027 -
Joe Snowdon Swindon Town Ativo 103 / 98 40% 1 18.05.2027 -
Vladis Emmersón Yenisey Ativo 105 / 106 40% 4 17.05.2027 -
Nikita Kakkoev Nizhniy Novgorod Ativo 120 / 105 40% 1 17.05.2027 -
Nader Mohammadi Spartak Kostroma Ativo 100 / 94 40% 3 16.05.2027 -
Idar Shumakhov Dinamo Makhachkala Ativo 108 / 104 40% 3 14.05.2027 -
Riley Owen Stevenage Ativo 111 / 118 40% 1 14.05.2027 -
Soslan Takulov Arsenal Tula Ativo 102 / 98 40% 3 13.05.2027 -
Daniil Marugin Shinnik Ativo 101 / 92 40% 2 11.05.2027 -
Kirill Bolshakov Arsenal Tula Ativo 104 / 110 40% 2 11.05.2027 -
Igor Konovalov Chernomorets Ativo 105 / 92 40% 4 09.05.2027 -
Alexandr Troshechkin Rotor Ativo 110 / 96 40% 1 04.05.2027 -
Eneko Astigarraga Real Sociedad Ativo 107 / 113 40% 1 04.05.2027 -
Alexey Berdnikov Chelyabinsk Ativo 104 / 99 40% 3 30.04.2027 -
Kirill Malyarov Shinnik Ativo 101 / 95 40% 3 25.04.2027 -
Maxim Shnaptsev Baltika Ativo 104 / 102 40% 1 25.04.2027 -
Vyacheslav Litvinov Sochi Ativo 106 / 112 40% 1 13.04.2027 -
Islamzhan Nasyrov Ryazan Ativo 87 / 95 40% 2 04.04.2027 -
Saminu Abdullahi KAMAZ Ativo 106 / 111 40% 2 02.04.2027 -
Faruk Gogić Spartak Kostroma Ativo 103 / 92 40% 1 02.04.2027 -
Eldar Ćivić Baltika Ativo 115 / 118 40% 3 01.04.2027 -
Artemy Kosogorov Shinnik Ativo 95 / 92 40% 1 01.04.2027 -
Andrés Alarcón Dinamo Makhachkala Ativo 119 / 117 40% 2 31.03.2027 -
Ruslan Baitukov Chelyabinsk Ativo 93 / 88 40% 1 31.03.2027 -
Artem Meschaninov Rodina Ativo 101 / 96 40% 1 29.03.2027 -
David Kokoev Yenisey Ativo 105 / 99 40% 2 17.03.2027 -
Alan Tsaraev Arsenal Tula Ativo 109 / 96 40% 1 17.03.2027 -
Khetag Khosonov Akron Ativo 108 / 109 40% 1 17.03.2027 -
David Shavlokhov Chernomorets Ativo 92 / 102 40% 3 16.03.2027 -
Vladislav Masternoy SKA Khabarovsk Ativo 100 / 100 40% 1 16.03.2027 -
Alan Khabalov Ufa Ativo 89 / 85 40% 1 16.03.2027 -
Bojan Roganović Torpedo Moscow Ativo 105 / 102 40% 2 06.03.2027 -
Alexandr Soldatenkov Sochi Ativo 119 / 118 40% 1 05.03.2027 -
Kirill Bozhenov Sokol Ativo 96 / 88 40% 2 03.03.2027 -
Gleb Shevchenko Torpedo Moscow Ativo 111 / 104 40% 1 01.03.2027 -
Robert Mejía Orenburg Ativo 120 / 106 40% 1 01.03.2027 -
Ebrima Jarju Paide Ativo 96 / 91 69% 1 04.01.2027 Aprovar
Evgeniy Abramovich Slavia Mozyr Ativo 91 / 106 40% 3 02.01.2027 -
Igor Leschuk Dinamo Moscow Ativo 124 / 112 40% 1 02.01.2027 -
Said Aliev Rotor Ativo 99 / 87 40% 1 31.12.2026 -
Alexandr Yushin Torpedo Moscow Ativo 111 / 113 40% 1 31.12.2026 -
Igor Obukhov Fakel Ativo 101 / 93 40% 1 29.12.2026 -
Oleh Bilyk Epicentr Ativo 105 / 102 40% 1 29.12.2026 -
Maxim Borisko CSKA Moscow Ativo 131 / 116 40% 2 28.12.2026 -
Marat Bokoev Akron Ativo 116 / 116 40% 2 27.12.2026 -
Ilja Pomazun Spartak Moscow Ativo 114 / 129 40% 3 25.12.2026 -
Timur Akmurzin Dinamo Bryansk Ativo 86 / 90 40% 1 25.12.2026 -
Ionuţ Nedelcearu Akron Ativo 114 / 105 40% 1 20.12.2026 -
Sergey Volkov Rodina Ativo 103 / 109 40% 2 18.12.2026 -
Vitaly Gudiev Akron Ativo 106 / 99 40% 1 18.12.2026 -
Alkalifa Coulibaly Onze Createurs Ativo 95 / 94 40% 1 13.12.2026 -
Alexandr Filin Baltika Ativo 117 / 104 40% 1 13.12.2026 -
Soslan Kagermazov Dinamo Makhachkala Ativo 99 / 88 40% 1 08.12.2026 -
Giorgi Kantaria Neftekhimik Ativo 101 / 101 40% 1 08.12.2026 -
Anton Mitryushkin Lokomotiv Moscow Ativo 116 / 128 40% 1 28.11.2026 -
Alexey Kuznetsov Leningradets Ativo 98 / 89 40% 1 27.11.2026 -
Facundo Altamirano San Lorenzo Ativo 124 / 128 40% 1 24.11.2026 -
Maycon Cleiton Zira Ativo 114 / 96 40% 1 24.11.2026 -
Maxim Belov Dinamo Brest Ativo 100 / 89 40% 1 21.11.2026 -
Fahd Moufi Baltika Ativo 112 / 119 40% 1 19.11.2026 -
Luke Southwood Bristol Rovers Ativo 114 / 99 40% 1 19.11.2026 -
Luke McGee Tranmere Rovers Ativo 99 / 112 40% 1 19.11.2026 -
Rayan Kolli Queens Park Rangers Ativo 120 / 95 40% 1 01.08.2026 -
Jacobo Alcalde SKA Khabarovsk Ativo 90 / 84 40% 1 01.08.2026 -
Sebastián Cocimano Nueva Chicago Ativo 113 / 117 40% 1 01.08.2026 -